sensor_id;sensor_type;location;lat;lon;timestamp;pressure;altitude;pressure_sealevel;temperature;humidity
7180;BME280;3631;42.152;24.756;2022-11-20T00:01:25;98767.66;;;13.67;100.00
7180;BME280;3631;42.152;24.756;2022-11-20T00:03:54;98782.56;;;13.65;100.00
7180;BME280;3631;42.152;24.756;2022-11-20T00:06:22;98772.88;;;13.67;100.00
7180;BME280;3631;42.152;24.756;2022-11-20T00:08:49;98766.72;;;13.68;100.00
7180;BME280;3631;42.152;24.756;2022-11-20T00:11:17;98780.88;;;13.64;100.00
7180;BME280;3631;42.152;24.756;2022-11-20T00:13:45;98779.63;;;13.71;100.00
7180;BME280;3631;42.152;24.756;2022-11-20T00:16:16;98774.81;;;13.64;100.00
7180;BME280;3631;42.152;24.756;2022-11-20T00:18:44;98778.56;;;13.58;100.00
7180;BME280;3631;42.152;24.756;2022-11-20T00:21:13;98776.56;;;13.63;100.00
7180;BME280;3631;42.152;24.756;2022-11-20T00:23:40;98766.16;;;13.63;100.00
7180;BME280;3631;42.152;24.756;2022-11-20T00:26:09;98779.19;;;13.63;100.00
7180;BME280;3631;42.152;24.756;2022-11-20T00:28:36;98768.47;;;13.52;100.00
7180;BME280;3631;42.152;24.756;2022-11-20T00:31:04;98766.78;;;13.51;100.00
7180;BME280;3631;42.152;24.756;2022-11-20T00:33:33;98763.06;;;13.39;100.00
7180;BME280;3631;42.152;24.756;2022-11-20T00:36:01;98763.22;;;13.36;100.00
7180;BME280;3631;42.152;24.756;2022-11-20T00:38:29;98777.25;;;13.34;100.00
7180;BME280;3631;42.152;24.756;2022-11-20T00:40:57;98777.16;;;13.35;100.00
7180;BME280;3631;42.152;24.756;2022-11-20T00:43:24;98763.97;;;13.38;100.00
7180;BME280;3631;42.152;24.756;2022-11-20T00:45:56;98765.75;;;13.38;100.00
7180;BME280;3631;42.152;24.756;2022-11-20T00:48:23;98766.19;;;13.46;100.00
7180;BME280;3631;42.152;24.756;2022-11-20T00:50:51;98765.13;;;13.33;100.00
7180;BME280;3631;42.152;24.756;2022-11-20T00:53:18;98786.59;;;13.38;100.00
7180;BME280;3631;42.152;24.756;2022-11-20T00:55:53;98774.03;;;13.29;100.00
7180;BME280;3631;42.152;24.756;2022-11-20T00:58:20;98777.41;;;13.31;100.00
7180;BME280;3631;42.152;24.756;2022-11-20T01:00:47;98770.59;;;13.28;100.00
7180;BME280;3631;42.152;24.756;2022-11-20T01:03:14;98777.09;;;13.37;100.00
7180;BME280;3631;42.152;24.756;2022-11-20T01:05:41;98774.72;;;13.32;100.00
7180;BME280;3631;42.152;24.756;2022-11-20T01:08:10;98765.91;;;13.35;100.00
7180;BME280;3631;42.152;24.756;2022-11-20T01:10:37;98768.44;;;13.36;100.00
7180;BME280;3631;42.152;24.756;2022-11-20T01:13:04;98773.50;;;13.39;100.00
7180;BME280;3631;42.152;24.756;2022-11-20T01:15:48;98756.94;;;13.40;100.00
7180;BME280;3631;42.152;24.756;2022-11-20T01:18:15;98765.59;;;13.41;100.00
7180;BME280;3631;42.152;24.756;2022-11-20T01:20:42;98750.94;;;13.38;100.00
7180;BME280;3631;42.152;24.756;2022-11-20T01:23:10;98745.25;;;13.48;100.00
7180;BME280;3631;42.152;24.756;2022-11-20T01:25:37;98748.69;;;13.48;100.00
7180;BME280;3631;42.152;24.756;2022-11-20T01:28:04;98743.34;;;13.51;100.00
7180;BME280;3631;42.152;24.756;2022-11-20T01:30:31;98737.19;;;13.52;100.00
7180;BME280;3631;42.152;24.756;2022-11-20T01:32:57;98742.41;;;13.52;100.00
7180;BME280;3631;42.152;24.756;2022-11-20T01:35:24;98728.28;;;13.56;100.00
7180;BME280;3631;42.152;24.756;2022-11-20T01:37:51;98742.16;;;13.57;100.00
7180;BME280;3631;42.152;24.756;2022-11-20T01:40:19;98729.94;;;13.57;100.00
7180;BME280;3631;42.152;24.756;2022-11-20T01:42:53;98732.31;;;13.62;100.00
7180;BME280;3631;42.152;24.756;2022-11-20T01:46:02;98732.47;;;13.59;100.00
7180;BME280;3631;42.152;24.756;2022-11-20T01:48:34;98722.75;;;13.62;100.00
7180;BME280;3631;42.152;24.756;2022-11-20T01:51:04;98712.47;;;13.59;100.00
7180;BME280;3631;42.152;24.756;2022-11-20T01:53:35;98725.28;;;13.64;100.00
7180;BME280;3631;42.152;24.756;2022-11-20T01:56:06;98719.72;;;13.54;100.00
7180;BME280;3631;42.152;24.756;2022-11-20T01:58:40;98707.41;;;13.56;100.00
7180;BME280;3631;42.152;24.756;2022-11-20T02:01:08;98709.84;;;13.59;100.00
7180;BME280;3631;42.152;24.756;2022-11-20T02:03:35;98704.56;;;13.61;100.00
7180;BME280;3631;42.152;24.756;2022-11-20T02:06:06;98718.38;;;13.63;100.00
7180;BME280;3631;42.152;24.756;2022-11-20T02:08:37;98707.75;;;13.66;100.00
7180;BME280;3631;42.152;24.756;2022-11-20T02:11:06;98704.22;;;13.51;100.00
7180;BME280;3631;42.152;24.756;2022-11-20T02:13:33;98695.47;;;13.52;100.00
7180;BME280;3631;42.152;24.756;2022-11-20T02:16:10;98708.69;;;13.49;100.00
7180;BME280;3631;42.152;24.756;2022-11-20T02:18:39;98712.03;;;13.51;100.00
7180;BME280;3631;42.152;24.756;2022-11-20T02:21:09;98697.16;;;13.53;100.00
7180;BME280;3631;42.152;24.756;2022-11-20T02:24:02;98703.13;;;13.55;100.00
7180;BME280;3631;42.152;24.756;2022-11-20T02:26:31;98702.03;;;13.59;100.00
7180;BME280;3631;42.152;24.756;2022-11-20T02:29:00;98685.22;;;13.49;100.00
7180;BME280;3631;42.152;24.756;2022-11-20T02:31:28;98685.72;;;13.56;100.00
7180;BME280;3631;42.152;24.756;2022-11-20T02:33:56;98680.19;;;13.62;100.00
7180;BME280;3631;42.152;24.756;2022-11-20T02:36:24;98684.72;;;13.58;100.00
7180;BME280;3631;42.152;24.756;2022-11-20T02:38:53;98684.88;;;13.71;100.00
7180;BME280;3631;42.152;24.756;2022-11-20T02:41:21;98669.66;;;13.63;100.00
7180;BME280;3631;42.152;24.756;2022-11-20T02:43:56;98667.56;;;13.54;100.00
7180;BME280;3631;42.152;24.756;2022-11-20T02:46:23;98676.47;;;13.66;100.00
7180;BME280;3631;42.152;24.756;2022-11-20T02:48:50;98659.16;;;13.49;100.00
7180;BME280;3631;42.152;24.756;2022-11-20T02:51:17;98684.59;;;13.44;100.00
7180;BME280;3631;42.152;24.756;2022-11-20T02:53:44;98692.75;;;13.38;100.00
7180;BME280;3631;42.152;24.756;2022-11-20T02:56:11;98687.41;;;13.41;100.00
7180;BME280;3631;42.152;24.756;2022-11-20T02:58:39;98696.63;;;13.47;100.00
7180;BME280;3631;42.152;24.756;2022-11-20T03:01:06;98691.19;;;13.51;100.00
7180;BME280;3631;42.152;24.756;2022-11-20T03:03:33;98682.44;;;13.52;100.00
7180;BME280;3631;42.152;24.756;2022-11-20T03:06:00;98673.78;;;13.52;100.00
7180;BME280;3631;42.152;24.756;2022-11-20T03:08:27;98670.91;;;13.56;100.00
7180;BME280;3631;42.152;24.756;2022-11-20T03:10:53;98680.88;;;13.65;100.00
7180;BME280;3631;42.152;24.756;2022-11-20T03:13:20;98692.22;;;13.64;100.00
7180;BME280;3631;42.152;24.756;2022-11-20T03:15:49;98688.75;;;13.48;100.00
7180;BME280;3631;42.152;24.756;2022-11-20T03:18:15;98691.34;;;13.48;100.00
7180;BME280;3631;42.152;24.756;2022-11-20T03:20:42;98705.06;;;13.52;100.00
7180;BME280;3631;42.152;24.756;2022-11-20T03:23:09;98679.00;;;13.52;100.00
7180;BME280;3631;42.152;24.756;2022-11-20T03:25:36;98674.09;;;13.45;100.00
7180;BME280;3631;42.152;24.756;2022-11-20T03:28:03;98662.81;;;13.45;100.00
7180;BME280;3631;42.152;24.756;2022-11-20T03:30:30;98661.16;;;13.44;100.00
7180;BME280;3631;42.152;24.756;2022-11-20T03:32:58;98663.44;;;13.50;100.00
7180;BME280;3631;42.152;24.756;2022-11-20T03:35:25;98666.28;;;13.45;100.00
7180;BME280;3631;42.152;24.756;2022-11-20T03:37:52;98663.84;;;13.58;100.00
7180;BME280;3631;42.152;24.756;2022-11-20T03:40:19;98675.03;;;13.60;100.00
7180;BME280;3631;42.152;24.756;2022-11-20T03:42:46;98685.47;;;13.60;100.00
7180;BME280;3631;42.152;24.756;2022-11-20T03:45:13;98684.88;;;13.55;100.00
7180;BME280;3631;42.152;24.756;2022-11-20T03:47:41;98681.91;;;13.45;100.00
7180;BME280;3631;42.152;24.756;2022-11-20T03:50:10;98681.00;;;13.47;100.00
7180;BME280;3631;42.152;24.756;2022-11-20T03:52:38;98686.06;;;13.50;100.00
7180;BME280;3631;42.152;24.756;2022-11-20T03:55:06;98682.75;;;13.46;100.00
7180;BME280;3631;42.152;24.756;2022-11-20T03:57:33;98671.56;;;13.44;100.00
7180;BME280;3631;42.152;24.756;2022-11-20T04:00:00;98681.16;;;13.43;100.00
7180;BME280;3631;42.152;24.756;2022-11-20T04:02:27;98674.94;;;13.46;100.00
7180;BME280;3631;42.152;24.756;2022-11-20T04:04:54;98674.94;;;13.46;100.00
7180;BME280;3631;42.152;24.756;2022-11-20T04:07:22;98687.81;;;13.49;100.00
7180;BME280;3631;42.152;24.756;2022-11-20T04:09:49;98686.56;;;13.56;100.00
7180;BME280;3631;42.152;24.756;2022-11-20T04:12:16;98682.88;;;13.60;100.00
7180;BME280;3631;42.152;24.756;2022-11-20T04:14:43;98689.69;;;13.63;100.00
7180;BME280;3631;42.152;24.756;2022-11-20T04:17:09;98689.78;;;13.61;100.00
7180;BME280;3631;42.152;24.756;2022-11-20T04:19:36;98691.13;;;13.53;100.00
7180;BME280;3631;42.152;24.756;2022-11-20T04:22:03;98693.13;;;13.63;100.00
7180;BME280;3631;42.152;24.756;2022-11-20T04:24:31;98685.03;;;13.68;100.00
7180;BME280;3631;42.152;24.756;2022-11-20T04:26:58;98697.94;;;13.71;100.00
7180;BME280;3631;42.152;24.756;2022-11-20T04:29:26;98694.47;;;13.70;100.00
7180;BME280;3631;42.152;24.756;2022-11-20T04:31:52;98691.78;;;13.72;100.00
7180;BME280;3631;42.152;24.756;2022-11-20T04:34:19;98690.94;;;13.71;100.00
7180;BME280;3631;42.152;24.756;2022-11-20T04:36:46;98688.94;;;13.76;100.00
7180;BME280;3631;42.152;24.756;2022-11-20T04:39:14;98689.66;;;13.78;100.00
7180;BME280;3631;42.152;24.756;2022-11-20T04:41:43;98678.25;;;13.81;100.00
7180;BME280;3631;42.152;24.756;2022-11-20T04:44:11;98644.84;;;13.72;100.00
7180;BME280;3631;42.152;24.756;2022-11-20T04:46:39;98692.44;;;14.07;100.00
7180;BME280;3631;42.152;24.756;2022-11-20T04:49:07;98682.84;;;13.92;100.00
7180;BME280;3631;42.152;24.756;2022-11-20T04:51:34;98694.13;;;14.08;100.00
7180;BME280;3631;42.152;24.756;2022-11-20T04:54:01;98675.25;;;14.18;100.00
7180;BME280;3631;42.152;24.756;2022-11-20T04:56:28;98679.72;;;14.16;100.00
7180;BME280;3631;42.152;24.756;2022-11-20T04:58:59;98693.44;;;14.20;100.00
7180;BME280;3631;42.152;24.756;2022-11-20T05:01:26;98691.41;;;14.25;100.00
7180;BME280;3631;42.152;24.756;2022-11-20T05:03:53;98667.34;;;14.20;100.00
7180;BME280;3631;42.152;24.756;2022-11-20T05:06:21;98669.41;;;14.45;100.00
7180;BME280;3631;42.152;24.756;2022-11-20T05:08:48;98672.13;;;14.58;100.00
7180;BME280;3631;42.152;24.756;2022-11-20T05:11:17;98675.50;;;14.60;100.00
7180;BME280;3631;42.152;24.756;2022-11-20T05:13:44;98696.06;;;14.66;100.00
7180;BME280;3631;42.152;24.756;2022-11-20T05:16:14;98704.63;;;14.68;100.00
7180;BME280;3631;42.152;24.756;2022-11-20T05:18:42;98711.44;;;14.70;100.00
7180;BME280;3631;42.152;24.756;2022-11-20T05:21:10;98701.94;;;14.69;100.00
7180;BME280;3631;42.152;24.756;2022-11-20T05:23:37;98705.00;;;14.62;100.00
7180;BME280;3631;42.152;24.756;2022-11-20T05:26:06;98702.63;;;14.57;100.00
7180;BME280;3631;42.152;24.756;2022-11-20T05:28:33;98713.44;;;14.51;100.00
7180;BME280;3631;42.152;24.756;2022-11-20T05:31:07;98694.72;;;14.59;100.00
7180;BME280;3631;42.152;24.756;2022-11-20T05:33:36;98693.13;;;14.56;100.00
7180;BME280;3631;42.152;24.756;2022-11-20T05:36:07;98695.72;;;14.56;100.00
7180;BME280;3631;42.152;24.756;2022-11-20T05:38:34;98700.88;;;14.58;100.00
7180;BME280;3631;42.152;24.756;2022-11-20T05:41:05;98699.28;;;14.55;100.00
7180;BME280;3631;42.152;24.756;2022-11-20T05:43:33;98693.78;;;14.60;100.00
7180;BME280;3631;42.152;24.756;2022-11-20T05:46:00;98693.72;;;14.61;100.00
7180;BME280;3631;42.152;24.756;2022-11-20T05:48:27;98685.66;;;14.50;100.00
7180;BME280;3631;42.152;24.756;2022-11-20T05:50:56;98695.47;;;14.61;100.00
7180;BME280;3631;42.152;24.756;2022-11-20T05:53:23;98699.94;;;14.59;100.00
7180;BME280;3631;42.152;24.756;2022-11-20T05:55:56;98699.28;;;14.55;100.00
7180;BME280;3631;42.152;24.756;2022-11-20T05:58:23;98714.13;;;14.69;100.00
7180;BME280;3631;42.152;24.756;2022-11-20T06:00:50;98712.66;;;14.65;100.00
7180;BME280;3631;42.152;24.756;2022-11-20T06:03:17;98700.91;;;14.72;100.00
7180;BME280;3631;42.152;24.756;2022-11-20T06:05:44;98714.56;;;14.77;100.00
7180;BME280;3631;42.152;24.756;2022-11-20T06:08:13;98731.88;;;14.64;100.00
7180;BME280;3631;42.152;24.756;2022-11-20T06:10:39;98711.59;;;14.53;100.00
7180;BME280;3631;42.152;24.756;2022-11-20T06:13:06;98708.78;;;14.56;100.00
7180;BME280;3631;42.152;24.756;2022-11-20T06:15:33;98710.06;;;14.49;100.00
7180;BME280;3631;42.152;24.756;2022-11-20T06:18:00;98719.59;;;14.50;100.00
7180;BME280;3631;42.152;24.756;2022-11-20T06:20:27;98710.38;;;14.44;100.00
7180;BME280;3631;42.152;24.756;2022-11-20T06:22:54;98707.22;;;14.38;100.00
7180;BME280;3631;42.152;24.756;2022-11-20T06:25:22;98710.38;;;14.44;100.00
7180;BME280;3631;42.152;24.756;2022-11-20T06:27:49;98740.25;;;14.69;100.00
7180;BME280;3631;42.152;24.756;2022-11-20T06:30:16;98729.09;;;14.81;100.00
7180;BME280;3631;42.152;24.756;2022-11-20T06:32:43;98741.31;;;14.80;100.00
7180;BME280;3631;42.152;24.756;2022-11-20T06:35:10;98746.63;;;14.79;100.00
7180;BME280;3631;42.152;24.756;2022-11-20T06:37:37;98735.16;;;14.81;100.00
7180;BME280;3631;42.152;24.756;2022-11-20T06:40:05;98737.63;;;14.84;100.00
7180;BME280;3631;42.152;24.756;2022-11-20T06:42:33;98751.56;;;14.99;100.00
7180;BME280;3631;42.152;24.756;2022-11-20T06:45:00;98745.78;;;15.08;100.00
7180;BME280;3631;42.152;24.756;2022-11-20T06:47:27;98754.75;;;15.18;100.00
7180;BME280;3631;42.152;24.756;2022-11-20T06:49:54;98741.97;;;15.28;100.00
7180;BME280;3631;42.152;24.756;2022-11-20T06:52:21;98746.34;;;15.27;100.00
7180;BME280;3631;42.152;24.756;2022-11-20T06:54:48;98731.34;;;15.31;100.00
7180;BME280;3631;42.152;24.756;2022-11-20T06:57:15;98748.63;;;15.34;100.00
7180;BME280;3631;42.152;24.756;2022-11-20T06:59:43;98751.78;;;15.39;100.00
7180;BME280;3631;42.152;24.756;2022-11-20T07:02:10;98758.69;;;15.40;100.00
7180;BME280;3631;42.152;24.756;2022-11-20T07:04:37;98760.38;;;15.41;100.00
7180;BME280;3631;42.152;24.756;2022-11-20T07:07:05;98745.25;;;15.46;100.00
7180;BME280;3631;42.152;24.756;2022-11-20T07:09:32;98742.53;;;15.47;100.00
7180;BME280;3631;42.152;24.756;2022-11-20T07:11:59;98738.56;;;15.56;100.00
7180;BME280;3631;42.152;24.756;2022-11-20T07:14:27;98747.88;;;15.60;100.00
7180;BME280;3631;42.152;24.756;2022-11-20T07:16:55;98748.53;;;15.64;100.00
7180;BME280;3631;42.152;24.756;2022-11-20T07:19:22;98765.94;;;15.65;100.00
7180;BME280;3631;42.152;24.756;2022-11-20T07:21:49;98768.25;;;15.69;100.00
7180;BME280;3631;42.152;24.756;2022-11-20T07:24:16;98760.97;;;15.74;100.00
7180;BME280;3631;42.152;24.756;2022-11-20T07:26:45;98740.03;;;15.74;100.00
7180;BME280;3631;42.152;24.756;2022-11-20T07:29:12;98739.69;;;15.66;100.00
7180;BME280;3631;42.152;24.756;2022-11-20T07:31:39;98746.88;;;15.63;100.00
7180;BME280;3631;42.152;24.756;2022-11-20T07:34:07;98766.78;;;15.65;100.00
7180;BME280;3631;42.152;24.756;2022-11-20T07:36:34;98775.56;;;15.64;100.00
7180;BME280;3631;42.152;24.756;2022-11-20T07:39:01;98765.81;;;15.80;100.00
7180;BME280;3631;42.152;24.756;2022-11-20T07:41:28;98773.78;;;15.79;100.00
7180;BME280;3631;42.152;24.756;2022-11-20T07:43:55;98779.84;;;15.79;100.00
7180;BME280;3631;42.152;24.756;2022-11-20T07:46:22;98785.53;;;15.86;100.00
7180;BME280;3631;42.152;24.756;2022-11-20T07:48:49;98766.78;;;15.65;100.00
7180;BME280;3631;42.152;24.756;2022-11-20T07:51:17;98774.44;;;15.68;100.00
7180;BME280;3631;42.152;24.756;2022-11-20T07:53:44;98781.22;;;15.71;100.00
7180;BME280;3631;42.152;24.756;2022-11-20T07:56:11;98783.00;;;15.70;100.00
7180;BME280;3631;42.152;24.756;2022-11-20T07:58:39;98763.84;;;15.70;100.00
7180;BME280;3631;42.152;24.756;2022-11-20T08:01:07;98761.25;;;15.70;100.00
7180;BME280;3631;42.152;24.756;2022-11-20T08:03:34;98761.16;;;15.71;100.00
7180;BME280;3631;42.152;24.756;2022-11-20T08:06:03;98756.75;;;15.72;100.00
7180;BME280;3631;42.152;24.756;2022-11-20T08:08:32;98755.72;;;15.74;100.00
7180;BME280;3631;42.152;24.756;2022-11-20T08:10:59;98762.66;;;15.75;100.00
7180;BME280;3631;42.152;24.756;2022-11-20T08:13:48;98762.25;;;15.81;100.00
7180;BME280;3631;42.152;24.756;2022-11-20T08:16:33;98767.13;;;15.87;100.00
7180;BME280;3631;42.152;24.756;2022-11-20T08:19:00;98767.66;;;16.07;100.00
7180;BME280;3631;42.152;24.756;2022-11-20T08:21:27;98756.50;;;16.03;100.00
7180;BME280;3631;42.152;24.756;2022-11-20T08:23:55;98750.25;;;16.06;100.00
7180;BME280;3631;42.152;24.756;2022-11-20T08:26:22;98758.75;;;16.09;100.00
7180;BME280;3631;42.152;24.756;2022-11-20T08:28:49;98761.28;;;16.11;100.00
7180;BME280;3631;42.152;24.756;2022-11-20T08:31:16;98763.72;;;16.14;100.00
7180;BME280;3631;42.152;24.756;2022-11-20T08:33:43;98762.97;;;16.39;100.00
7180;BME280;3631;42.152;24.756;2022-11-20T08:36:09;98763.25;;;16.61;100.00
7180;BME280;3631;42.152;24.756;2022-11-20T08:38:36;98754.94;;;16.68;100.00
7180;BME280;3631;42.152;24.756;2022-11-20T08:41:05;98742.41;;;16.86;100.00
7180;BME280;3631;42.152;24.756;2022-11-20T08:43:55;98738.13;;;17.11;100.00
7180;BME280;3631;42.152;24.756;2022-11-20T08:46:24;98742.44;;;17.24;100.00
7180;BME280;3631;42.152;24.756;2022-11-20T08:48:51;98733.50;;;17.39;100.00
7180;BME280;3631;42.152;24.756;2022-11-20T08:51:18;98739.38;;;17.56;100.00
7180;BME280;3631;42.152;24.756;2022-11-20T08:53:46;98750.81;;;17.80;100.00
7180;BME280;3631;42.152;24.756;2022-11-20T08:56:15;98757.53;;;17.84;100.00
7180;BME280;3631;42.152;24.756;2022-11-20T08:58:43;98749.63;;;17.97;100.00
7180;BME280;3631;42.152;24.756;2022-11-20T09:01:10;98749.16;;;18.16;100.00
7180;BME280;3631;42.152;24.756;2022-11-20T09:03:37;98758.72;;;18.17;100.00
7180;BME280;3631;42.152;24.756;2022-11-20T09:06:06;98747.53;;;18.26;100.00
7180;BME280;3631;42.152;24.756;2022-11-20T09:08:34;98739.94;;;18.34;100.00
7180;BME280;3631;42.152;24.756;2022-11-20T09:11:01;98742.50;;;18.46;100.00
7180;BME280;3631;42.152;24.756;2022-11-20T09:13:30;98741.66;;;18.59;100.00
7180;BME280;3631;42.152;24.756;2022-11-20T09:15:59;98751.56;;;18.90;100.00
7180;BME280;3631;42.152;24.756;2022-11-20T09:18:27;98743.28;;;19.18;100.00
7180;BME280;3631;42.152;24.756;2022-11-20T09:20:57;98742.31;;;19.31;100.00
7180;BME280;3631;42.152;24.756;2022-11-20T09:23:24;98734.91;;;19.36;100.00
7180;BME280;3631;42.152;24.756;2022-11-20T09:25:52;98727.13;;;19.34;100.00
7180;BME280;3631;42.152;24.756;2022-11-20T09:28:21;98706.91;;;19.23;100.00
7180;BME280;3631;42.152;24.756;2022-11-20T09:30:49;98710.63;;;19.32;100.00
7180;BME280;3631;42.152;24.756;2022-11-20T09:33:16;98713.63;;;19.39;100.00
7180;BME280;3631;42.152;24.756;2022-11-20T09:35:43;98706.59;;;19.50;100.00
7180;BME280;3631;42.152;24.756;2022-11-20T09:38:10;98710.91;;;19.63;100.00
7180;BME280;3631;42.152;24.756;2022-11-20T09:40:40;98703.00;;;19.74;100.00
7180;BME280;3631;42.152;24.756;2022-11-20T09:43:13;98696.50;;;19.89;100.00
7180;BME280;3631;42.152;24.756;2022-11-20T09:45:54;98690.34;;;20.11;100.00
7180;BME280;3631;42.152;24.756;2022-11-20T09:51:34;98674.72;;;20.62;100.00
7180;BME280;3631;42.152;24.756;2022-11-20T09:54:11;98672.28;;;20.70;100.00
7180;BME280;3631;42.152;24.756;2022-11-20T09:56:43;98662.63;;;20.80;100.00
7180;BME280;3631;42.152;24.756;2022-11-20T09:59:25;98670.28;;;20.83;100.00
7180;BME280;3631;42.152;24.756;2022-11-20T10:01:55;98669.91;;;20.88;100.00
7180;BME280;3631;42.152;24.756;2022-11-20T10:04:23;98679.41;;;21.00;100.00
7180;BME280;3631;42.152;24.756;2022-11-20T10:06:55;98670.56;;;21.11;100.00
7180;BME280;3631;42.152;24.756;2022-11-20T10:09:28;98686.41;;;21.22;100.00
7180;BME280;3631;42.152;24.756;2022-11-20T10:12:09;98686.44;;;21.31;100.00
7180;BME280;3631;42.152;24.756;2022-11-20T10:14:50;98681.69;;;21.35;100.00
7180;BME280;3631;42.152;24.756;2022-11-20T10:17:28;98667.63;;;21.25;100.00
7180;BME280;3631;42.152;24.756;2022-11-20T10:20:12;98663.81;;;21.18;100.00
7180;BME280;3631;42.152;24.756;2022-11-20T10:22:51;98637.34;;;20.98;100.00
7180;BME280;3631;42.152;24.756;2022-11-20T10:25:24;98659.06;;;21.12;100.00
7180;BME280;3631;42.152;24.756;2022-11-20T10:28:19;98661.66;;;21.02;100.00
7180;BME280;3631;42.152;24.756;2022-11-20T10:30:55;98656.78;;;20.97;100.00
7180;BME280;3631;42.152;24.756;2022-11-20T10:33:26;98644.34;;;20.88;100.00
7180;BME280;3631;42.152;24.756;2022-11-20T10:36:05;98644.34;;;20.88;100.00
7180;BME280;3631;42.152;24.756;2022-11-20T10:38:36;98647.97;;;20.87;100.00
7180;BME280;3631;42.152;24.756;2022-11-20T10:41:06;98646.31;;;20.86;100.00
7180;BME280;3631;42.152;24.756;2022-11-20T10:43:56;98642.25;;;20.82;100.00
7180;BME280;3631;42.152;24.756;2022-11-20T10:46:36;98632.91;;;20.78;100.00
7180;BME280;3631;42.152;24.756;2022-11-20T10:49:13;98622.91;;;20.72;100.00
7180;BME280;3631;42.152;24.756;2022-11-20T10:51:50;98622.66;;;20.75;100.00
7180;BME280;3631;42.152;24.756;2022-11-20T10:54:22;98622.31;;;20.69;100.00
7180;BME280;3631;42.152;24.756;2022-11-20T10:56:53;98616.59;;;20.63;100.00
7180;BME280;3631;42.152;24.756;2022-11-20T10:59:35;98614.47;;;20.57;100.00
7180;BME280;3631;42.152;24.756;2022-11-20T11:02:15;98617.44;;;20.64;100.00
7180;BME280;3631;42.152;24.756;2022-11-20T11:04:45;98622.06;;;20.51;100.00
7180;BME280;3631;42.152;24.756;2022-11-20T11:07:15;98616.53;;;20.54;100.00
7180;BME280;3631;42.152;24.756;2022-11-20T11:09:47;98619.75;;;20.57;100.00
7180;BME280;3631;42.152;24.756;2022-11-20T11:12:15;98616.78;;;20.51;100.00
7180;BME280;3631;42.152;24.756;2022-11-20T11:14:47;98606.50;;;20.48;100.00
7180;BME280;3631;42.152;24.756;2022-11-20T11:17:26;98597.16;;;20.44;100.00
7180;BME280;3631;42.152;24.756;2022-11-20T11:20:06;98592.88;;;20.43;100.00
7180;BME280;3631;42.152;24.756;2022-11-20T11:22:34;98577.75;;;20.45;100.00
7180;BME280;3631;42.152;24.756;2022-11-20T11:25:19;98578.16;;;20.40;100.00
7180;BME280;3631;42.152;24.756;2022-11-20T11:27:46;98579.13;;;20.39;100.00
7180;BME280;3631;42.152;24.756;2022-11-20T11:30:16;98582.19;;;20.44;100.00
7180;BME280;3631;42.152;24.756;2022-11-20T11:32:43;98569.53;;;20.38;100.00
7180;BME280;3631;42.152;24.756;2022-11-20T11:35:24;98580.31;;;20.35;100.00
7180;BME280;3631;42.152;24.756;2022-11-20T11:37:54;98582.34;;;20.31;100.00
7180;BME280;3631;42.152;24.756;2022-11-20T11:40:30;98575.09;;;20.24;100.00
7180;BME280;3631;42.152;24.756;2022-11-20T11:43:01;98574.00;;;20.26;100.00
7180;BME280;3631;42.152;24.756;2022-11-20T11:45:29;98573.28;;;20.24;100.00
7180;BME280;3631;42.152;24.756;2022-11-20T11:47:57;98577.72;;;20.24;100.00
7180;BME280;3631;42.152;24.756;2022-11-20T11:50:27;98588.00;;;20.27;100.00
7180;BME280;3631;42.152;24.756;2022-11-20T11:53:05;98589.28;;;20.33;100.00
7180;BME280;3631;42.152;24.756;2022-11-20T11:55:39;98585.69;;;20.34;100.00
7180;BME280;3631;42.152;24.756;2022-11-20T11:58:30;98592.53;;;20.36;100.00
7180;BME280;3631;42.152;24.756;2022-11-20T12:01:04;98583.56;;;20.39;100.00
7180;BME280;3631;42.152;24.756;2022-11-20T12:03:36;98587.75;;;20.41;100.00
7180;BME280;3631;42.152;24.756;2022-11-20T12:06:10;98586.63;;;20.44;100.00
7180;BME280;3631;42.152;24.756;2022-11-20T12:08:44;98589.13;;;20.45;100.00
7180;BME280;3631;42.152;24.756;2022-11-20T12:11:17;98583.31;;;20.42;100.00
7180;BME280;3631;42.152;24.756;2022-11-20T12:13:52;98579.69;;;20.43;100.00
7180;BME280;3631;42.152;24.756;2022-11-20T12:16:20;98571.50;;;20.46;100.00
7180;BME280;3631;42.152;24.756;2022-11-20T12:18:50;98564.56;;;20.45;100.00
7180;BME280;3631;42.152;24.756;2022-11-20T12:21:28;98564.06;;;20.51;100.00
7180;BME280;3631;42.152;24.756;2022-11-20T12:24:19;98560.53;;;20.41;100.00
7180;BME280;3631;42.152;24.756;2022-11-20T12:27:02;98572.88;;;20.40;100.00
7180;BME280;3631;42.152;24.756;2022-11-20T12:29:40;98574.69;;;20.40;100.00
7180;BME280;3631;42.152;24.756;2022-11-20T12:32:35;98559.25;;;20.35;100.00
7180;BME280;3631;42.152;24.756;2022-11-20T12:35:17;98551.97;;;20.27;100.00
7180;BME280;3631;42.152;24.756;2022-11-20T12:37:59;98559.03;;;20.27;100.00
7180;BME280;3631;42.152;24.756;2022-11-20T12:40:38;98553.41;;;20.20;100.00
7180;BME280;3631;42.152;24.756;2022-11-20T12:43:13;98557.03;;;20.19;100.00
7180;BME280;3631;42.152;24.756;2022-11-20T12:46:18;98553.94;;;20.14;100.00
7180;BME280;3631;42.152;24.756;2022-11-20T12:49:04;98551.66;;;20.10;100.00
7180;BME280;3631;42.152;24.756;2022-11-20T12:52:03;98543.66;;;20.11;100.00
7180;BME280;3631;42.152;24.756;2022-11-20T12:57:32;98554.00;;;20.24;100.00
7180;BME280;3631;42.152;24.756;2022-11-20T13:00:10;98557.88;;;20.20;100.00
7180;BME280;3631;42.152;24.756;2022-11-20T13:05:46;98554.66;;;20.16;100.00
7180;BME280;3631;42.152;24.756;2022-11-20T13:08:20;98550.84;;;20.09;100.00
7180;BME280;3631;42.152;24.756;2022-11-20T13:10:56;98564.41;;;20.05;100.00
7180;BME280;3631;42.152;24.756;2022-11-20T13:13:35;98565.16;;;19.96;100.00
7180;BME280;3631;42.152;24.756;2022-11-20T13:16:05;98572.13;;;19.97;100.00
7180;BME280;3631;42.152;24.756;2022-11-20T13:18:38;98573.44;;;19.91;100.00
7180;BME280;3631;42.152;24.756;2022-11-20T13:21:14;98578.59;;;19.92;100.00
7180;BME280;3631;42.152;24.756;2022-11-20T13:23:41;98570.09;;;19.89;100.00
7180;BME280;3631;42.152;24.756;2022-11-20T13:26:17;98573.69;;;19.88;100.00